Terminal Aerodrome Forecast
Issued by NWS Burlington, VT

Home | Current Version | Previous Version | Text Only | Print | Product List | Glossary On
Versions: 1 2 3 4 5 6 7 8 9 10 11 12 13 14 15 16 17 18 19 20 21 22
000
FTUS41 KBTV 282328
TAFBTV
TAF
KBTV 282328Z 2900/2924 30007KT P6SM OVC050
     FM290600 VRB03KT P6SM SCT050 SCT100
     FM291500 17008KT P6SM BKN080
     FM292200 18009KT P6SM OVC060=

USA.gov is the U.S. government's official web portal to all federal, state and local government web resources and services.